createdAt,value
2023-03-26T00:01:23.626Z,22.88
2023-03-26T00:03:54.721Z,22.91
2023-03-26T00:06:23.804Z,22.82
2023-03-26T00:08:51.511Z,22.81
2023-03-26T00:11:20.890Z,22.91
2023-03-26T00:13:48.154Z,22.84
2023-03-26T00:16:17.684Z,22.84
2023-03-26T00:18:44.650Z,22.77
2023-03-26T00:21:15.152Z,22.77
2023-03-26T00:23:43.068Z,22.78
2023-03-26T00:26:11.158Z,22.82
2023-03-26T00:28:40.364Z,22.69
2023-03-26T00:31:12.947Z,22.88
2023-03-26T00:33:41.340Z,22.84
2023-03-26T00:36:14.749Z,22.53
2023-03-26T00:38:42.923Z,22.76
2023-03-26T00:41:19.579Z,22.75
2023-03-26T00:43:46.676Z,22.88
2023-03-26T00:46:13.735Z,22.88
2023-03-26T00:48:45.530Z,22.80
2023-03-26T00:51:17.917Z,22.85
2023-03-26T00:53:46.959Z,22.86
2023-03-26T00:56:14.345Z,22.85
2023-03-26T00:58:41.768Z,22.84
2023-03-26T01:01:15.462Z,22.80
2023-03-26T01:03:53.635Z,22.84
2023-03-26T01:06:35.912Z,22.83
2023-03-26T01:09:34.943Z,22.83
2023-03-26T01:12:06.601Z,22.82
2023-03-26T01:14:33.397Z,22.78
2023-03-26T01:17:02.434Z,22.82
2023-03-26T01:19:45.258Z,22.78
2023-03-26T01:22:24.438Z,22.81
2023-03-26T01:24:56.487Z,22.81
2023-03-26T01:27:29.543Z,22.80
2023-03-26T01:30:15.113Z,22.72
2023-03-26T01:33:14.255Z,22.55
2023-03-26T01:36:04.110Z,22.79
2023-03-26T01:39:02.159Z,22.78
2023-03-26T01:41:35.618Z,22.77
2023-03-26T01:44:27.273Z,22.76
2023-03-26T01:46:55.088Z,22.76
2023-03-26T01:49:21.781Z,22.76
2023-03-26T01:51:48.502Z,22.75
2023-03-26T01:54:21.133Z,22.75
2023-03-26T01:56:54.726Z,22.76
2023-03-26T01:59:41.278Z,22.72
2023-03-26T02:02:38.688Z,22.74
2023-03-26T02:05:22.662Z,22.74
2023-03-26T02:07:58.575Z,22.73
2023-03-26T02:10:30.300Z,22.53
2023-03-26T02:12:58.967Z,22.73
2023-03-26T02:15:25.930Z,22.72
2023-03-26T02:17:53.332Z,22.71
2023-03-26T02:20:20.901Z,22.69
2023-03-26T02:22:47.888Z,22.69
2023-03-26T02:25:21.116Z,22.70
2023-03-26T02:27:52.840Z,22.60
2023-03-26T02:30:29.475Z,22.52
2023-03-26T02:32:59.238Z,22.67
2023-03-26T02:35:30.737Z,22.68
2023-03-26T02:37:59.987Z,22.67
2023-03-26T02:40:26.704Z,22.65
2023-03-26T02:42:53.576Z,22.65
2023-03-26T02:45:20.273Z,22.65
2023-03-26T02:48:08.029Z,22.65
2023-03-26T02:50:57.503Z,22.63
2023-03-26T02:53:39.418Z,22.60
2023-03-26T02:56:29.596Z,22.55
2023-03-26T02:59:13.818Z,22.58
2023-03-26T03:01:43.726Z,22.62
2023-03-26T03:04:13.590Z,22.58
2023-03-26T03:06:40.958Z,22.60
2023-03-26T03:09:11.018Z,22.60
2023-03-26T03:11:39.583Z,22.54
2023-03-26T03:14:07.775Z,22.59
2023-03-26T03:16:35.325Z,22.58
2023-03-26T03:19:06.168Z,22.65
2023-03-26T03:21:37.703Z,22.65
2023-03-26T03:24:05.117Z,22.62
2023-03-26T03:26:37.711Z,22.64
2023-03-26T03:29:29.041Z,22.59
2023-03-26T03:32:00.060Z,22.66
2023-03-26T03:34:49.827Z,22.67
2023-03-26T03:37:17.682Z,22.68
2023-03-26T03:39:50.254Z,22.59
2023-03-26T03:42:20.263Z,22.64
2023-03-26T03:44:49.034Z,22.64
2023-03-26T03:47:35.914Z,22.63
2023-03-26T03:50:03.406Z,22.63
2023-03-26T03:52:30.631Z,22.64
2023-03-26T03:54:57.776Z,22.64
2023-03-26T03:57:45.641Z,22.62
2023-03-26T04:00:18.146Z,22.64
2023-03-26T04:02:56.192Z,22.64
2023-03-26T04:05:26.520Z,22.64
2023-03-26T04:07:53.070Z,22.63
2023-03-26T04:10:28.502Z,22.63
2023-03-26T04:13:04.094Z,22.63
2023-03-26T04:15:57.228Z,22.60
2023-03-26T04:18:26.231Z,22.57
2023-03-26T04:20:55.505Z,22.61
2023-03-26T04:23:26.684Z,22.61
2023-03-26T04:26:10.386Z,22.52
2023-03-26T04:29:03.447Z,22.59
2023-03-26T04:31:32.009Z,22.52
2023-03-26T04:34:13.637Z,22.58
2023-03-26T04:36:55.175Z,22.54
2023-03-26T04:39:30.024Z,22.57
2023-03-26T04:42:19.920Z,22.57
2023-03-26T04:45:15.305Z,22.52
2023-03-26T04:47:46.474Z,22.55
2023-03-26T04:50:13.485Z,22.45
2023-03-26T04:52:43.276Z,22.29
2023-03-26T04:55:58.050Z,22.54
2023-03-26T04:58:44.760Z,22.49
2023-03-26T05:01:11.953Z,22.52
2023-03-26T05:03:45.800Z,22.54
2023-03-26T05:06:14.528Z,22.54
2023-03-26T05:08:41.722Z,22.48
2023-03-26T05:11:12.238Z,22.49
2023-03-26T05:13:39.526Z,22.51
2023-03-26T05:16:11.467Z,22.34
2023-03-26T05:18:41.365Z,22.49
2023-03-26T05:21:08.946Z,22.51
2023-03-26T05:23:37.204Z,22.52
2023-03-26T05:26:16.306Z,22.48
2023-03-26T05:28:43.228Z,22.48
2023-03-26T05:31:21.167Z,22.28
2023-03-26T05:33:50.278Z,22.53
2023-03-26T05:36:17.222Z,22.51
2023-03-26T05:38:49.892Z,22.22
2023-03-26T05:41:42.901Z,22.42
2023-03-26T05:44:09.679Z,22.51
2023-03-26T05:46:36.804Z,22.40
2023-03-26T05:49:03.813Z,22.51
2023-03-26T05:51:33.881Z,22.36
2023-03-26T05:54:18.606Z,22.53
2023-03-26T05:57:08.188Z,22.55
2023-03-26T05:59:57.938Z,22.53
2023-03-26T06:02:43.391Z,22.57
2023-03-26T06:05:26.864Z,22.49
2023-03-26T06:08:16.451Z,22.56
2023-03-26T06:10:50.764Z,22.54
2023-03-26T06:13:17.793Z,22.60
2023-03-26T06:15:46.176Z,22.48
2023-03-26T06:18:42.941Z,22.59
2023-03-26T06:21:33.970Z,22.55
2023-03-26T06:24:16.410Z,22.61
2023-03-26T06:26:51.149Z,22.62
2023-03-26T06:29:43.788Z,22.62
2023-03-26T06:32:20.507Z,22.62
2023-03-26T06:34:59.164Z,22.62
2023-03-26T06:37:25.854Z,22.63
2023-03-26T06:39:57.670Z,22.63
2023-03-26T06:43:07.707Z,22.64
2023-03-26T06:45:54.385Z,22.65
2023-03-26T06:48:39.800Z,22.64
2023-03-26T06:51:19.421Z,22.65
2023-03-26T06:54:04.872Z,22.65
2023-03-26T06:56:53.068Z,22.64
2023-03-26T06:59:25.855Z,22.65
2023-03-26T07:02:11.677Z,22.64
2023-03-26T07:05:16.989Z,22.38
2023-03-26T07:08:03.062Z,22.63
2023-03-26T07:10:48.460Z,22.60
2023-03-26T07:13:39.910Z,22.65
2023-03-26T07:16:41.929Z,22.56
2023-03-26T07:19:33.235Z,22.58
2023-03-26T07:22:01.663Z,22.52
2023-03-26T07:24:48.100Z,22.58
2023-03-26T07:28:21.999Z,22.65
2023-03-26T07:31:42.612Z,22.64
2023-03-26T07:34:45.308Z,22.64
2023-03-26T07:37:35.814Z,22.65
2023-03-26T07:40:45.789Z,22.65
2023-03-26T07:43:41.358Z,22.66
2023-03-26T07:46:12.437Z,22.67
2023-03-26T07:49:12.644Z,22.62
2023-03-26T07:51:52.522Z,22.48
2023-03-26T07:54:52.242Z,22.68
2023-03-26T07:57:58.838Z,22.68
2023-03-26T08:00:58.717Z,22.68
2023-03-26T08:03:42.240Z,22.64
2023-03-26T08:06:39.581Z,22.65
2023-03-26T08:09:41.892Z,22.66
2023-03-26T08:12:57.451Z,22.72
2023-03-26T08:15:41.896Z,22.67
2023-03-26T08:18:20.509Z,22.74
2023-03-26T08:20:54.341Z,22.76
2023-03-26T08:23:50.463Z,22.77
2023-03-26T08:26:36.867Z,22.77
2023-03-26T08:29:16.132Z,22.73
2023-03-26T08:31:44.885Z,22.75
2023-03-26T08:34:13.416Z,22.50
2023-03-26T08:36:40.402Z,22.79
2023-03-26T08:39:08.109Z,22.80
2023-03-26T08:42:02.941Z,22.80
2023-03-26T08:45:12.006Z,22.79
2023-03-26T08:47:48.068Z,22.82
2023-03-26T08:50:33.790Z,22.84
2023-03-26T08:53:31.336Z,22.85
2023-03-26T08:56:34.920Z,22.86
2023-03-26T08:59:43.067Z,22.87
2023-03-26T09:02:38.472Z,22.88
2023-03-26T09:05:44.768Z,22.80
2023-03-26T09:08:17.106Z,22.88
2023-03-26T09:11:09.234Z,22.86
2023-03-26T09:14:08.626Z,22.89
2023-03-26T09:17:04.382Z,22.89
2023-03-26T09:19:55.835Z,22.90
2023-03-26T09:22:44.017Z,22.90
2023-03-26T09:25:18.384Z,22.91
2023-03-26T09:28:14.122Z,22.91
2023-03-26T09:31:05.549Z,22.92
2023-03-26T09:33:56.333Z,22.92
2023-03-26T09:36:40.986Z,22.93
2023-03-26T09:39:26.638Z,22.90
2023-03-26T09:42:09.034Z,22.91
2023-03-26T09:45:13.422Z,22.92
2023-03-26T09:48:16.456Z,22.91
2023-03-26T09:50:52.471Z,22.89
2023-03-26T09:53:56.355Z,22.93
2023-03-26T09:56:32.332Z,22.92
2023-03-26T09:59:37.729Z,22.93
2023-03-26T10:02:20.648Z,22.94
2023-03-26T10:05:21.560Z,22.95
2023-03-26T10:08:16.568Z,22.93
2023-03-26T10:10:47.347Z,22.81
2023-03-26T10:13:24.872Z,22.94
2023-03-26T10:16:05.247Z,22.85
2023-03-26T10:18:49.647Z,22.95
2023-03-26T10:21:34.585Z,22.95
2023-03-26T10:24:13.579Z,22.95
2023-03-26T10:27:10.833Z,22.96
2023-03-26T10:30:16.282Z,22.97
2023-03-26T10:32:51.292Z,22.96
2023-03-26T10:35:41.311Z,22.97
2023-03-26T10:38:45.715Z,22.98
2023-03-26T10:41:29.087Z,22.96
2023-03-26T10:44:22.992Z,22.81
2023-03-26T10:47:04.772Z,22.99
2023-03-26T10:49:50.031Z,22.97
2023-03-26T10:52:25.048Z,22.98
2023-03-26T10:55:03.631Z,22.98
2023-03-26T10:57:53.875Z,23.01
2023-03-26T11:00:27.231Z,23.01
2023-03-26T11:03:10.123Z,22.84
2023-03-26T11:06:10.985Z,23.01
2023-03-26T11:08:52.589Z,23.00
2023-03-26T11:11:38.503Z,22.99
2023-03-26T11:14:33.825Z,22.99
2023-03-26T11:17:40.153Z,22.94
2023-03-26T11:20:19.767Z,22.89
2023-03-26T11:23:00.942Z,22.89
2023-03-26T11:25:27.620Z,22.97
2023-03-26T11:28:00.200Z,22.97
2023-03-26T11:30:45.954Z,22.95
2023-03-26T11:33:32.701Z,22.95
2023-03-26T11:36:07.296Z,22.95
2023-03-26T11:38:41.928Z,22.94
2023-03-26T11:41:23.614Z,22.94
2023-03-26T11:44:25.994Z,22.94
2023-03-26T11:47:01.612Z,22.94
2023-03-26T11:49:29.479Z,22.96
2023-03-26T11:51:56.524Z,22.96
2023-03-26T11:54:23.234Z,22.89
2023-03-26T11:57:04.710Z,22.96
2023-03-26T12:00:10.778Z,22.97
2023-03-26T12:02:41.580Z,22.98
2023-03-26T12:05:19.932Z,22.91
2023-03-26T12:07:52.316Z,22.99
2023-03-26T12:10:26.786Z,22.92
2023-03-26T12:12:56.678Z,22.99
2023-03-26T12:17:47.258Z,22.94
2023-03-26T12:20:24.854Z,22.97
2023-03-26T12:22:59.574Z,22.96
2023-03-26T12:25:38.850Z,22.84
2023-03-26T12:28:18.546Z,22.95
2023-03-26T12:31:00.952Z,22.96
2023-03-26T12:33:34.205Z,22.97
2023-03-26T12:36:26.451Z,22.85
2023-03-26T12:40:06.028Z,22.94
2023-03-26T12:43:51.506Z,22.97
2023-03-26T12:44:54.605Z,22.99
2023-03-26T12:48:00.848Z,22.99
2023-03-26T12:50:34.448Z,22.99
2023-03-26T12:53:17.917Z,22.99
2023-03-26T12:56:23.959Z,23.01
2023-03-26T12:59:00.289Z,22.89
2023-03-26T13:01:40.835Z,23.03
2023-03-26T13:04:17.216Z,22.99
2023-03-26T13:06:59.745Z,23.05
2023-03-26T13:09:32.816Z,23.06
2023-03-26T13:12:43.170Z,23.07
2023-03-26T13:15:22.032Z,23.05
2023-03-26T13:17:51.726Z,23.06
2023-03-26T13:20:21.521Z,23.06
2023-03-26T13:23:01.868Z,23.07
2023-03-26T13:25:34.811Z,23.08
2023-03-26T13:28:19.816Z,23.09
2023-03-26T13:31:05.390Z,23.09
2023-03-26T13:33:46.350Z,23.00
2023-03-26T13:36:31.158Z,23.10
2023-03-26T13:39:08.154Z,23.10
2023-03-26T13:41:41.146Z,23.11
2023-03-26T13:44:19.970Z,23.11
2023-03-26T13:46:55.169Z,23.13
2023-03-26T13:49:43.259Z,23.13
2023-03-26T13:52:22.950Z,23.11
2023-03-26T13:55:12.340Z,23.14
2023-03-26T13:57:43.374Z,23.14
2023-03-26T14:00:18.348Z,23.03
2023-03-26T14:03:04.022Z,23.14
2023-03-26T14:05:42.262Z,23.16
2023-03-26T14:08:25.344Z,23.13
2023-03-26T14:11:01.564Z,23.17
2023-03-26T14:14:06.155Z,23.17
2023-03-26T14:16:42.321Z,23.17
2023-03-26T14:19:30.888Z,23.19
2023-03-26T14:22:18.560Z,23.19
2023-03-26T14:25:00.064Z,23.16
2023-03-26T14:27:44.978Z,23.20
2023-03-26T14:30:24.405Z,23.21
2023-03-26T14:33:27.171Z,23.23
2023-03-26T14:35:57.553Z,23.23
2023-03-26T14:38:40.233Z,23.23
2023-03-26T14:41:26.987Z,23.24
2023-03-26T14:44:12.803Z,23.15
2023-03-26T14:47:00.976Z,23.25
2023-03-26T14:49:53.615Z,23.24
2023-03-26T14:52:39.413Z,23.15
2023-03-26T14:55:17.069Z,23.23
2023-03-26T14:57:52.726Z,23.23
2023-03-26T15:01:04.145Z,23.22
2023-03-26T15:03:56.448Z,23.22
2023-03-26T15:06:41.901Z,23.21
2023-03-26T15:09:30.885Z,23.19
2023-03-26T15:12:15.058Z,23.18
2023-03-26T15:14:51.077Z,23.18
2023-03-26T15:17:59.530Z,23.17
2023-03-26T15:20:47.854Z,23.17
2023-03-26T15:23:29.412Z,23.15
2023-03-26T15:25:58.785Z,23.14
2023-03-26T15:28:50.353Z,23.13
2023-03-26T15:31:18.526Z,23.13
2023-03-26T15:33:51.167Z,23.12
2023-03-26T15:36:28.139Z,23.13
2023-03-26T15:39:06.505Z,23.10
2023-03-26T15:41:50.951Z,23.05
2023-03-26T15:44:31.680Z,23.12
2023-03-26T15:47:13.055Z,23.10
2023-03-26T15:49:49.862Z,23.10
2023-03-26T15:52:30.118Z,23.06
2023-03-26T15:55:01.761Z,23.09
2023-03-26T15:57:39.095Z,23.08
2023-03-26T16:00:25.879Z,23.07
2023-03-26T16:03:20.386Z,23.06
2023-03-26T16:06:09.699Z,23.05
2023-03-26T16:08:53.102Z,23.05
2023-03-26T16:11:44.971Z,23.05
2023-03-26T16:14:23.786Z,23.00
2023-03-26T16:16:59.248Z,23.03
2023-03-26T16:19:36.619Z,23.04
2023-03-26T16:22:07.754Z,22.91
2023-03-26T16:24:37.789Z,23.03
2023-03-26T16:27:26.212Z,23.00
2023-03-26T16:30:15.755Z,23.02
2023-03-26T16:32:55.289Z,23.00
2023-03-26T16:35:35.875Z,23.00
2023-03-26T16:38:14.766Z,22.91
2023-03-26T16:41:01.858Z,22.90
2023-03-26T16:43:43.897Z,22.99
2023-03-26T16:46:11.144Z,22.99
2023-03-26T16:48:47.123Z,22.99
2023-03-26T16:51:32.485Z,22.98
2023-03-26T16:54:26.999Z,22.97
2023-03-26T16:57:28.752Z,22.86
2023-03-26T17:00:05.932Z,22.96
2023-03-26T17:02:57.636Z,22.95
2023-03-26T17:05:38.022Z,22.94
2023-03-26T17:08:17.443Z,22.94
2023-03-26T17:11:08.447Z,22.93
2023-03-26T17:13:41.215Z,22.91
2023-03-26T17:16:13.704Z,22.92
2023-03-26T17:18:58.171Z,22.87
2023-03-26T17:21:45.534Z,22.90
2023-03-26T17:24:26.170Z,22.85
2023-03-26T17:27:29.910Z,22.88
2023-03-26T17:30:03.811Z,22.87
2023-03-26T17:32:58.613Z,22.83
2023-03-26T17:35:41.766Z,22.73
2023-03-26T17:38:17.801Z,22.83
2023-03-26T17:40:47.634Z,22.81
2023-03-26T17:43:47.742Z,22.81
2023-03-26T17:46:34.600Z,22.80
2023-03-26T17:49:11.359Z,22.76
2023-03-26T17:52:17.074Z,22.75
2023-03-26T17:54:48.033Z,22.73
2023-03-26T17:57:40.211Z,22.71
2023-03-26T18:00:16.764Z,22.62
2023-03-26T18:02:51.265Z,22.67
2023-03-26T18:05:20.719Z,22.61
2023-03-26T18:08:24.587Z,22.64
2023-03-26T18:11:26.216Z,22.47
2023-03-26T18:13:58.800Z,22.61
2023-03-26T18:16:47.524Z,22.56
2023-03-26T18:19:19.509Z,22.45
2023-03-26T18:21:58.034Z,22.57
2023-03-26T18:24:40.527Z,22.57
2023-03-26T18:27:12.623Z,22.55
2023-03-26T18:30:01.568Z,22.51
2023-03-26T18:32:34.055Z,22.54
2023-03-26T18:35:17.060Z,22.50
2023-03-26T18:37:53.771Z,22.53
2023-03-26T18:40:23.548Z,22.51
2023-03-26T18:42:59.181Z,22.51
2023-03-26T18:45:39.837Z,22.50
2023-03-26T18:48:26.135Z,22.49
2023-03-26T18:51:06.022Z,22.48
2023-03-26T18:53:45.824Z,22.45
2023-03-26T18:56:29.193Z,22.36
2023-03-26T18:59:02.555Z,22.45
2023-03-26T19:01:33.236Z,22.45
2023-03-26T19:04:06.170Z,22.44
2023-03-26T19:06:38.375Z,22.44
2023-03-26T19:09:16.384Z,22.45
2023-03-26T19:12:00.665Z,22.42
2023-03-26T19:14:28.660Z,22.42
2023-03-26T19:17:01.427Z,22.43
2023-03-26T19:19:39.508Z,22.42
2023-03-26T19:22:08.092Z,22.41
2023-03-26T19:24:36.311Z,22.32
2023-03-26T19:27:04.751Z,22.35
2023-03-26T19:29:35.008Z,22.41
2023-03-26T19:32:20.276Z,22.41
2023-03-26T19:34:51.860Z,22.40
2023-03-26T19:37:22.802Z,22.39
2023-03-26T19:40:17.175Z,22.39
2023-03-26T19:42:50.817Z,22.39
2023-03-26T19:45:35.737Z,22.37
2023-03-26T19:48:15.026Z,22.35
2023-03-26T19:51:01.329Z,22.35
2023-03-26T19:53:34.591Z,22.36
2023-03-26T19:56:20.904Z,22.37
2023-03-26T19:58:50.001Z,22.29
2023-03-26T20:01:22.818Z,22.36
2023-03-26T20:03:59.411Z,22.32
2023-03-26T20:06:42.605Z,22.36
2023-03-26T20:09:12.990Z,22.36
2023-03-26T20:11:46.478Z,22.35
2023-03-26T20:14:19.366Z,22.27
2023-03-26T20:16:51.427Z,22.34
2023-03-26T20:19:27.021Z,22.33
2023-03-26T20:21:54.617Z,22.34
2023-03-26T20:24:21.632Z,22.32
2023-03-26T20:26:48.590Z,22.23
2023-03-26T20:29:16.124Z,22.32
2023-03-26T20:31:43.529Z,22.32
2023-03-26T20:34:17.018Z,22.31
2023-03-26T20:36:48.218Z,22.30
2023-03-26T20:39:15.582Z,22.29
2023-03-26T20:41:47.627Z,22.21
2023-03-26T20:44:17.378Z,22.29
2023-03-26T20:46:55.970Z,22.29
2023-03-26T20:49:24.809Z,22.28
2023-03-26T20:51:51.441Z,22.24
2023-03-26T20:54:24.337Z,22.28
2023-03-26T20:56:52.382Z,22.28
2023-03-26T20:59:22.168Z,22.12
2023-03-26T21:01:50.171Z,22.27
2023-03-26T21:04:17.750Z,22.26
2023-03-26T21:06:44.327Z,22.26
2023-03-26T21:09:23.437Z,22.25
2023-03-26T21:11:55.300Z,22.26
2023-03-26T21:14:27.666Z,22.25
2023-03-26T21:16:54.866Z,22.24
2023-03-26T21:19:21.821Z,22.23
2023-03-26T21:21:59.888Z,22.24
2023-03-26T21:24:40.909Z,22.20
2023-03-26T21:27:19.708Z,22.23
2023-03-26T21:29:46.712Z,22.01
2023-03-26T21:32:14.724Z,21.93
2023-03-26T21:34:55.540Z,22.21
2023-03-26T21:37:25.648Z,22.15
2023-03-26T21:39:52.565Z,22.23
2023-03-26T21:42:19.676Z,22.21
2023-03-26T21:44:46.764Z,22.23
2023-03-26T21:47:14.074Z,22.13
2023-03-26T21:49:41.196Z,22.24
2023-03-26T21:52:14.188Z,22.23
2023-03-26T21:54:43.182Z,22.24
2023-03-26T21:57:29.065Z,22.24
2023-03-26T22:00:11.521Z,22.23
2023-03-26T22:03:00.768Z,22.03
2023-03-26T22:05:45.448Z,22.23
2023-03-26T22:08:24.260Z,22.24
2023-03-26T22:10:51.224Z,22.21
2023-03-26T22:13:19.925Z,22.14
2023-03-26T22:15:46.743Z,22.27
2023-03-26T22:18:14.248Z,22.28
2023-03-26T22:20:43.223Z,22.27
2023-03-26T22:23:10.773Z,22.25
2023-03-26T22:25:38.628Z,22.25
2023-03-26T22:28:05.649Z,21.95
2023-03-26T22:30:33.413Z,22.26
2023-03-26T22:33:00.075Z,22.21
2023-03-26T22:35:26.706Z,22.23
2023-03-26T22:38:00.491Z,21.98
2023-03-26T22:40:28.276Z,22.24
2023-03-26T22:42:55.141Z,22.22
2023-03-26T22:45:22.848Z,22.20
2023-03-26T22:47:49.965Z,22.19
2023-03-26T22:50:16.671Z,22.14
2023-03-26T22:52:43.189Z,22.05
2023-03-26T22:55:11.528Z,22.17
2023-03-26T22:57:39.551Z,22.06
2023-03-26T23:00:16.145Z,22.15
2023-03-26T23:02:47.188Z,22.07
2023-03-26T23:05:17.371Z,22.02
2023-03-26T23:07:45.905Z,22.07
2023-03-26T23:10:13.027Z,22.08
2023-03-26T23:12:43.349Z,22.16
2023-03-26T23:15:10.637Z,22.00
2023-03-26T23:17:37.809Z,22.17
2023-03-26T23:20:14.996Z,22.15
2023-03-26T23:22:42.831Z,22.16
2023-03-26T23:25:11.145Z,22.13
2023-03-26T23:27:39.596Z,22.17
2023-03-26T23:30:06.719Z,22.11
2023-03-26T23:32:37.637Z,22.11
2023-03-26T23:35:04.954Z,22.16
2023-03-26T23:37:34.791Z,22.05
2023-03-26T23:40:01.470Z,22.17
2023-03-26T23:42:29.761Z,22.11
2023-03-26T23:44:57.505Z,22.01
2023-03-26T23:47:24.452Z,22.17
2023-03-26T23:49:51.195Z,22.16
2023-03-26T23:52:18.301Z,22.00
2023-03-26T23:54:45.638Z,22.16
2023-03-26T23:57:12.798Z,22.16
2023-03-26T23:59:41.418Z,22.16
